Airfield :
LOGIN :

Register | Disclaimer

   EN    FR    IT 

 










Legend :    VFR   Marginal VFR   IFR   Intensive IFR   Very Intensive IFR
Visi :
Ceiling :
>= 8 km
>= 3000ft
5 to 8 km
1000 to 3000 ft
1500m to 5 km
500 to 1000 ft
800 to 1500m
200 to 500 ft
< 800m
< 200 ft
Symbols :   Thunderstorms  Fog  Heavy snow  Heavy precipitations  Wind > 20 kt
SIGMETs :     Misc.  Thunderstorms  Icing  Turbulence  Mountain Waves  Volcanic Ashes







- Airport Elevation : 266 ft
- IATA code : NCL
- Download approach charts


EGNT - Newcastle

CURRENT METAR :
  • 231320Z 22013G23KT 200V260 9999 FEW021 12/08 Q0999

EXPIRED METARs :
  • 231250Z 22015G25KT 9999 VCSH SCT020 12/08 Q1000
  • 231220Z 22020G30KT 9999 SCT020 12/08 Q0999
  • 231150Z 22023G36KT 9999 SCT021 12/08 Q0999
  • 231120Z 22018G28KT 190V250 9999 FEW021 SCT032 12/08 Q1000
  • 231050Z 21013KT 180V240 9999 SCT024 12/08 Q1001

TAF TAF EGNT
Valid from the 23 at 12:00 until the 24 at 12:00 UTC


231054Z 2312/2412 22014KT 9999 SCT025
TEMPO 2312/2324 22020G30KT
PROB30
TEMPO 2312/2318 7000 SHRA
TEMPO 2400/2412 19020G30KT
TEMPO 2402/2408 6000 RA BKN009
PROB40
TEMPO 2403/2407 4000 +RA
ATIS : +44 191 214 3400
No reported NOTAMs for that airfield.



MET'MAP, your aeronautical weather chart ! - Copyright ORBIFLY December 2007 - Disclaimer

ORBIFLY MET'MAP TEAM :

Programming & Development : Alexandra Zaïnal
Concept & Development : Baudouin d'Aumeries
Co-Development & Prog : Marc-Olivier Méhu
Technical & hardware support : Manuel Goepfert

Contact : metmap@orbifly.com




SOURCES & CREDITS :

   NOAA